Prescott, Wisconsin
Current Conditions -  °F | °C
As of 8:30 PM on Tuesday 21 Oct 2014 (Local Time) from KSGS Reporting Station
Clear Clear  
Wind Chill: 50°   Ceiling: Unl
Heat Index: 50°   Visibility: 10mi
Dew Point: 39°   Wind: 5mph
Humidity: 67%   Direction: 150°SSE
Pressure: 30.16"   Gusts: NA
Location:  44.75°N, 92.8°W
Report Text: KSGS 220130Z AUTO 15004KT 10SM CLR 10/04 A3016 RMK AO2 T01000041
Loading
Personal Weather Stations






























Interactive Weather Map
Tropical Storm Tracking
New forecast layout! Learn more

10-Day Weather Forecast

Advertisements
Track Severe Weather on mobile